APL Korea — WCX8883 — position and weather

sailwx.info

Track history (hours):
 
Tides and Currents Weather Stations Pressure Air Temp Water Temp Dewpoint Dewpoint Depression Visibility Wind Speed Wind Dir Waves Ship Positions

APL Korea

Owner: APL MARITIME LTD, Rockville, MD. More information available from US FCC via Universal Licensing System and Coast Guard Vessel Documentation Center.

Last reported at 2018-Apr-26 22:00 UTC. Time now 2018-Apr-27 02:46 UTC.
Position N 31°22' E 121°35'.

Length 276.3 m; beam 40 m; draft 14 m.

Type: Cargo ship. MMSI: 368685000.

Date/timePositionNaut miles runAvg speedWind from/ knotsBaromVisibWave heightAir tempDewpointWater temp
2018-Apr-26 22:00N 31°22' E 121°35'0 0.0
2018-Apr-26 20:00N 31°22' E 121°35'0 0.1
2018-Apr-26 19:24N 31°22' E 121°35'0 0.0
2018-Apr-26 17:18N 31°22' E 121°35'1 0.1
2018-Apr-26 02:07N 31°23' E 121°34'0 1.9
2018-Apr-26 01:58N 31°23' E 121°34'3 6.1
2018-Apr-26 01:30N 31°22' E 121°37'6 7.0
2018-Apr-26 00:35N 31°19' E 121°44'2 9.6
2018-Apr-26 00:23N 31°18' E 121°46'511.2
2018-Apr-25 23:56N 31°16' E 121°51'511.0
2018-Apr-25 23:30N 31°15' E 121°56'1316.2
2018-Apr-25 22:42N 31°11' E 122°11'211.2
2018-Apr-25 22:30N 31°12' E 122°08'5 9.0
2018-Apr-25 22:00N 31°09' E 122°13'5 9.7
2018-Apr-25 21:30N 31°07' E 122°17'611.3
2018-Apr-25 21:00N 31°06' E 122°24'4 7.4
2018-Apr-25 20:29N 31°09' E 122°28'713.3
2018-Apr-25 19:59N 31°14' E 122°32'1021.1
2018-Apr-25 19:30N 31°24' E 122°31'3718.0
2018-Apr-25 17:26N 32°01' E 122°32'1014.9
2018-Apr-25 16:46N 32°11' E 122°32'414.4
2018-Apr-25 16:28N 32°16' E 122°32'1114.3
2018-Apr-25 15:43N 32°26' E 122°32'314.1
2018-Apr-25 15:29N 32°30' E 122°32'713.8
2018-Apr-25 15:00N 32°36' E 122°31'2213.6
2018-Apr-25 13:23N 32°58' E 122°32'8 5.7
2018-Apr-25 12:00N 33°06' E 122°30'10812.0 160 / 61017.0 5.4 16.012.4 9.0
2018-Apr-25 03:00N 34°54' E 122°30'3110.3 160 / 61017.0 2.2 15.011.3 8.0
2018-Apr-25 00:00N 35°18' E 122°06'8414.1 160 / 61017.0 5.4 13.0 9.1 7.0
2018-Apr-24 18:01N 35°58' E 120°35'214.6
2018-Apr-24 17:54N 35°58' E 120°33'713.1
2018-Apr-24 17:23N 36°00' E 120°25'810.9
2018-Apr-24 16:39N 36°02' E 120°15'2 9.6
2018-Apr-24 16:27N 36°01' E 120°13'0 0.2
2018-Apr-24 14:07N 36°00' E 120°13'0 0.0
2018-Apr-24 12:39N 36°00' E 120°13'0 0.0
2018-Apr-24 12:21N 36°00' E 120°13'0 0.0
2018-Apr-24 10:49N 36°00' E 120°13'0 0.0
2018-Apr-24 07:48N 36°00' E 120°13'0 0.0
2018-Apr-24 07:25N 36°00' E 120°13'0 0.0
2018-Apr-24 06:49N 36°00' E 120°13'0 0.0
2018-Apr-24 06:13N 36°00' E 120°13'0 0.0
2018-Apr-24 05:55N 36°00' E 120°13'0 0.0
2018-Apr-24 05:25N 36°00' E 120°13'0 0.1
2018-Apr-24 04:37N 36°00' E 120°13'0 0.2
2018-Apr-24 04:25N 36°00' E 120°13'0 0.0
2018-Apr-24 03:49N 36°00' E 120°13'0 0.0
2018-Apr-24 03:25N 36°00' E 120°13'0 0.0
2018-Apr-24 02:33N 36°00' E 120°13'0 0.0
2018-Apr-24 02:25N 36°00' E 120°13'0 0.1
2018-Apr-24 01:49N 36°00' E 120°13'2 5.4
2018-Apr-24 01:28N 36°02' E 120°15'710.4
2018-Apr-24 00:50N 36°01' E 120°23'412.9
2018-Apr-24 00:30N 36°00' E 120°28'17714.1
2018-Apr-23 12:00N 34°18' E 123°24'18921.0 160 / 61007.0 0.3 15.0 9.2 9.0
2018-Apr-23 03:00N 32°06' E 126°06'6321.1 150 / 221012.0 2.2 22.018.914.0
2018-Apr-23 00:00N 31°06' E 126°30'21423.8 160 / 111014.010.8 23.019.915.0
2018-Apr-22 15:00N 27°36' E 127°18'6722.3 130 / 111014.510.8 22.018.922.0
2018-Apr-22 12:00N 26°30' E 127°30'72 4.0 040 / 111016.010.8 23.019.920.0
2018-Apr-21 18:00N 27°42' E 127°36'8428.0 130 / 261015.010.8 23.019.922.0
2018-Apr-21 15:00N 29°06' E 127°36'6622.0 130 / 221020.010.8 22.018.923.0
2018-Apr-21 12:00N 30°12' E 127°36'12020.0 180 / 141017.010.8 21.019.415.0
2018-Apr-21 06:00N 32°12' E 127°36'9030.1 130 / 241018.5 5.4 22.018.917.0
2018-Apr-21 03:00N 33°30' E 128°30'15574.2 190 / 161020.2 5.4 20.014.915.0
2018-Apr-21 02:58N 33°22' E 128°15'1022.2
2018-Apr-21 02:30N 33°31' E 128°20'1222.3
2018-Apr-21 01:58N 33°42' E 128°27'1022.4
2018-Apr-21 01:30N 33°52' E 128°32'1122.6
2018-Apr-21 01:00N 34°02' E 128°38'1222.8
2018-Apr-21 00:28N 34°13' E 128°45'1122.9
2018-Apr-21 00:00N 34°23' E 128°49'7558.0
2018-Apr-21 00:00N 34°30' E 128°48'510.5 180 / 51019.0 2.2 18.012.712.0
2018-Apr-20 23:30N 34°33' E 128°53'1121.9
2018-Apr-20 22:59N 34°44' E 128°52'1020.2
2018-Apr-20 22:30N 34°54' E 128°51'11 2.5
2018-Apr-20 18:14N 35°04' E 128°49'0 0.0
2018-Apr-20 17:46N 35°04' E 128°49'0 0.0
2018-Apr-20 11:45N 35°04' E 128°49'6 0.3
2018-Apr-19 16:49N 35°00' E 128°54'0 0.0
2018-Apr-19 16:22N 35°00' E 128°54'0 0.0
2018-Apr-19 15:16N 35°00' E 128°54'0 0.1
2018-Apr-19 14:46N 35°00' E 128°54'0 0.3
2018-Apr-19 14:25N 35°00' E 128°54'0 0.1
2018-Apr-19 13:43N 35°00' E 128°54'0 0.2
2018-Apr-19 13:22N 35°00' E 128°54'0 0.1
2018-Apr-19 12:58N 35°00' E 128°54'0 0.2
2018-Apr-19 12:22N 35°00' E 128°54'0 0.0
2018-Apr-19 11:37N 35°00' E 128°54'0 0.0
2018-Apr-19 11:22N 35°00' E 128°54'0 0.0
2018-Apr-19 10:58N 35°00' E 128°54'0 0.0
2018-Apr-19 10:19N 35°00' E 128°54'0 0.1
2018-Apr-19 09:52N 35°00' E 128°54'0 0.2
2018-Apr-19 09:22N 35°00' E 128°54'0 0.2
2018-Apr-19 08:58N 35°00' E 128°54'0 0.0
2018-Apr-19 08:22N 35°00' E 128°54'0 0.0
2018-Apr-19 07:58N 35°00' E 128°54'0 0.0
2018-Apr-19 07:28N 35°00' E 128°54'0 0.0
2018-Apr-19 06:58N 35°00' E 128°54'0 0.4
2018-Apr-19 06:30N 35°00' E 128°54'3 5.6
2018-Apr-19 06:00N 34°58' E 128°56'715.1
2018-Apr-19 05:30N 34°51' E 128°55'2417.7
2018-Apr-19 04:09N 34°27' E 128°53'420.9
2018-Apr-19 03:57N 34°23' E 128°54'1421.5
2018-Apr-19 03:19N 34°10' E 128°50'722.0
2018-Apr-19 03:00N 34°03' E 128°47'151266.3
2018-Apr-19 03:00N 33°48' E 128°42'510.1 250 / 141020.210.8 19.011.814.0
2018-Apr-19 02:31N 33°53' E 128°44'1221.3
2018-Apr-19 01:56N 33°41' E 128°41'921.1
2018-Apr-19 01:30N 33°32' E 128°38'1621.2
2018-Apr-19 00:45N 33°16' E 128°33'9614.2
2018-Apr-18 18:00N 31°48' E 129°18'8614.3 280 / 91018.010.8 17.011.517.0
2018-Apr-18 12:00N 30°54' E 130°36'9710.8 210 / 81016.010.8 17.013.516.0
2018-Apr-18 03:00N 31°36' E 132°18'4514.9 340 / 221007.010.8 18.010.620.0
2018-Apr-18 00:00N 31°54' E 133°06'11512.8 320 / 111016.010.8 14.010.220.0
2018-Apr-17 15:00N 32°48' E 135°06'3110.3 030 / 141017.0 5.4 14.012.215.0
2018-Apr-17 12:00N 33°06' E 135°36'9215.4 080 / 91018.0 5.4 14.012.215.0
2018-Apr-17 06:00N 33°42' E 137°18'5317.7 040 / 221019.0 2.2 18.014.614.0
2018-Apr-17 02:58N 34°07' E 138°15'1018.9
2018-Apr-17 02:27N 34°12' E 138°25'1121.4
2018-Apr-17 01:57N 34°17' E 138°36'1121.9
2018-Apr-17 01:28N 34°22' E 138°48'1021.7
2018-Apr-17 01:00N 34°26' E 138°59'1121.4
2018-Apr-17 00:29N 34°31' E 139°11'1120.5
2018-Apr-16 23:57N 34°35' E 139°23'1619.7
2018-Apr-16 23:09N 34°48' E 139°34'421.8
2018-Apr-16 22:59N 34°52' E 139°36'1021.8
2018-Apr-16 22:30N 35°01' E 139°41'918.6
2018-Apr-16 22:00N 35°10' E 139°45'  
Track history (hours):
 
Tides and Currents Weather Stations Pressure Air Temp Water Temp Dewpoint Dewpoint Depression Visibility Wind Speed Wind Dir Waves Ship Positions

APL Korea

Owner: APL MARITIME LTD, Rockville, MD. More information available from US FCC via Universal Licensing System and Coast Guard Vessel Documentation Center.

Last reported at 2018-Apr-26 22:00 UTC. Time now 2018-Apr-27 02:46 UTC.
Position N 31°22' E 121°35'.

Length 276.3 m; beam 40 m; draft 14 m.

Type: Cargo ship. MMSI: 368685000.

Date/timePositionNaut miles runAvg speedWind from/ knotsBaromVisibWave heightAir tempDewpointWater temp
2018-Apr-26 22:00N 31°22' E 121°35'0 0.0
2018-Apr-26 20:00N 31°22' E 121°35'0 0.1
2018-Apr-26 19:24N 31°22' E 121°35'0 0.0
2018-Apr-26 17:18N 31°22' E 121°35'1 0.1
2018-Apr-26 02:07N 31°23' E 121°34'0 1.9
2018-Apr-26 01:58N 31°23' E 121°34'3 6.1
2018-Apr-26 01:30N 31°22' E 121°37'6 7.0
2018-Apr-26 00:35N 31°19' E 121°44'2 9.6
2018-Apr-26 00:23N 31°18' E 121°46'511.2
2018-Apr-25 23:56N 31°16' E 121°51'511.0
2018-Apr-25 23:30N 31°15' E 121°56'1316.2
2018-Apr-25 22:42N 31°11' E 122°11'211.2
2018-Apr-25 22:30N 31°12' E 122°08'5 9.0
2018-Apr-25 22:00N 31°09' E 122°13'5 9.7
2018-Apr-25 21:30N 31°07' E 122°17'611.3
2018-Apr-25 21:00N 31°06' E 122°24'4 7.4
2018-Apr-25 20:29N 31°09' E 122°28'713.3
2018-Apr-25 19:59N 31°14' E 122°32'1021.1
2018-Apr-25 19:30N 31°24' E 122°31'3718.0
2018-Apr-25 17:26N 32°01' E 122°32'1014.9
2018-Apr-25 16:46N 32°11' E 122°32'414.4
2018-Apr-25 16:28N 32°16' E 122°32'1114.3
2018-Apr-25 15:43N 32°26' E 122°32'314.1
2018-Apr-25 15:29N 32°30' E 122°32'713.8
2018-Apr-25 15:00N 32°36' E 122°31'2213.6
2018-Apr-25 13:23N 32°58' E 122°32'8 5.7
2018-Apr-25 12:00N 33°06' E 122°30'10812.0 160 / 61017.0 5.4 16.012.4 9.0
2018-Apr-25 03:00N 34°54' E 122°30'3110.3 160 / 61017.0 2.2 15.011.3 8.0
2018-Apr-25 00:00N 35°18' E 122°06'8414.1 160 / 61017.0 5.4 13.0 9.1 7.0
2018-Apr-24 18:01N 35°58' E 120°35'214.6
2018-Apr-24 17:54N 35°58' E 120°33'713.1
2018-Apr-24 17:23N 36°00' E 120°25'810.9
2018-Apr-24 16:39N 36°02' E 120°15'2 9.6
2018-Apr-24 16:27N 36°01' E 120°13'0 0.2
2018-Apr-24 14:07N 36°00' E 120°13'0 0.0
2018-Apr-24 12:39N 36°00' E 120°13'0 0.0
2018-Apr-24 12:21N 36°00' E 120°13'0 0.0
2018-Apr-24 10:49N 36°00' E 120°13'0 0.0
2018-Apr-24 07:48N 36°00' E 120°13'0 0.0
2018-Apr-24 07:25N 36°00' E 120°13'0 0.0
2018-Apr-24 06:49N 36°00' E 120°13'0 0.0
2018-Apr-24 06:13N 36°00' E 120°13'0 0.0
2018-Apr-24 05:55N 36°00' E 120°13'0 0.0
2018-Apr-24 05:25N 36°00' E 120°13'0 0.1
2018-Apr-24 04:37N 36°00' E 120°13'0 0.2
2018-Apr-24 04:25N 36°00' E 120°13'0 0.0
2018-Apr-24 03:49N 36°00' E 120°13'0 0.0
2018-Apr-24 03:25N 36°00' E 120°13'0 0.0
2018-Apr-24 02:33N 36°00' E 120°13'0 0.0
2018-Apr-24 02:25N 36°00' E 120°13'0 0.1
2018-Apr-24 01:49N 36°00' E 120°13'2 5.4
2018-Apr-24 01:28N 36°02' E 120°15'710.4
2018-Apr-24 00:50N 36°01' E 120°23'412.9
2018-Apr-24 00:30N 36°00' E 120°28'17714.1
2018-Apr-23 12:00N 34°18' E 123°24'18921.0 160 / 61007.0 0.3 15.0 9.2 9.0
2018-Apr-23 03:00N 32°06' E 126°06'6321.1 150 / 221012.0 2.2 22.018.914.0
2018-Apr-23 00:00N 31°06' E 126°30'21423.8 160 / 111014.010.8 23.019.915.0
2018-Apr-22 15:00N 27°36' E 127°18'6722.3 130 / 111014.510.8 22.018.922.0
2018-Apr-22 12:00N 26°30' E 127°30'72 4.0 040 / 111016.010.8 23.019.920.0
2018-Apr-21 18:00N 27°42' E 127°36'8428.0 130 / 261015.010.8 23.019.922.0
2018-Apr-21 15:00N 29°06' E 127°36'6622.0 130 / 221020.010.8 22.018.923.0
2018-Apr-21 12:00N 30°12' E 127°36'12020.0 180 / 141017.010.8 21.019.415.0
2018-Apr-21 06:00N 32°12' E 127°36'9030.1 130 / 241018.5 5.4 22.018.917.0
2018-Apr-21 03:00N 33°30' E 128°30'15574.2 190 / 161020.2 5.4 20.014.915.0
2018-Apr-21 02:58N 33°22' E 128°15'1022.2
2018-Apr-21 02:30N 33°31' E 128°20'1222.3
2018-Apr-21 01:58N 33°42' E 128°27'1022.4
2018-Apr-21 01:30N 33°52' E 128°32'1122.6
2018-Apr-21 01:00N 34°02' E 128°38'1222.8
2018-Apr-21 00:28N 34°13' E 128°45'1122.9
2018-Apr-21 00:00N 34°23' E 128°49'7558.0
2018-Apr-21 00:00N 34°30' E 128°48'510.5 180 / 51019.0 2.2 18.012.712.0
2018-Apr-20 23:30N 34°33' E 128°53'1121.9
2018-Apr-20 22:59N 34°44' E 128°52'1020.2
2018-Apr-20 22:30N 34°54' E 128°51'11 2.5
2018-Apr-20 18:14N 35°04' E 128°49'0 0.0
2018-Apr-20 17:46N 35°04' E 128°49'0 0.0
2018-Apr-20 11:45N 35°04' E 128°49'6 0.3
2018-Apr-19 16:49N 35°00' E 128°54'0 0.0
2018-Apr-19 16:22N 35°00' E 128°54'0 0.0
2018-Apr-19 15:16N 35°00' E 128°54'0 0.1
2018-Apr-19 14:46N 35°00' E 128°54'0 0.3
2018-Apr-19 14:25N 35°00' E 128°54'0 0.1
2018-Apr-19 13:43N 35°00' E 128°54'0 0.2
2018-Apr-19 13:22N 35°00' E 128°54'0 0.1
2018-Apr-19 12:58N 35°00' E 128°54'0 0.2
2018-Apr-19 12:22N 35°00' E 128°54'0 0.0
2018-Apr-19 11:37N 35°00' E 128°54'0 0.0
2018-Apr-19 11:22N 35°00' E 128°54'0 0.0
2018-Apr-19 10:58N 35°00' E 128°54'0 0.0
2018-Apr-19 10:19N 35°00' E 128°54'0 0.1
2018-Apr-19 09:52N 35°00' E 128°54'0 0.2
2018-Apr-19 09:22N 35°00' E 128°54'0 0.2
2018-Apr-19 08:58N 35°00' E 128°54'0 0.0
2018-Apr-19 08:22N 35°00' E 128°54'0 0.0
2018-Apr-19 07:58N 35°00' E 128°54'0 0.0
2018-Apr-19 07:28N 35°00' E 128°54'0 0.0
2018-Apr-19 06:58N 35°00' E 128°54'0 0.4
2018-Apr-19 06:30N 35°00' E 128°54'3 5.6
2018-Apr-19 06:00N 34°58' E 128°56'715.1
2018-Apr-19 05:30N 34°51' E 128°55'2417.7
2018-Apr-19 04:09N 34°27' E 128°53'420.9
2018-Apr-19 03:57N 34°23' E 128°54'1421.5
2018-Apr-19 03:19N 34°10' E 128°50'722.0
2018-Apr-19 03:00N 34°03' E 128°47'151266.3
2018-Apr-19 03:00N 33°48' E 128°42'510.1 250 / 141020.210.8 19.011.814.0
2018-Apr-19 02:31N 33°53' E 128°44'1221.3
2018-Apr-19 01:56N 33°41' E 128°41'921.1
2018-Apr-19 01:30N 33°32' E 128°38'1621.2
2018-Apr-19 00:45N 33°16' E 128°33'9614.2
2018-Apr-18 18:00N 31°48' E 129°18'8614.3 280 / 91018.010.8 17.011.517.0
2018-Apr-18 12:00N 30°54' E 130°36'9710.8 210 / 81016.010.8 17.013.516.0
2018-Apr-18 03:00N 31°36' E 132°18'4514.9 340 / 221007.010.8 18.010.620.0
2018-Apr-18 00:00N 31°54' E 133°06'11512.8 320 / 111016.010.8 14.010.220.0
2018-Apr-17 15:00N 32°48' E 135°06'3110.3 030 / 141017.0 5.4 14.012.215.0
2018-Apr-17 12:00N 33°06' E 135°36'9215.4 080 / 91018.0 5.4 14.012.215.0
2018-Apr-17 06:00N 33°42' E 137°18'5317.7 040 / 221019.0 2.2 18.014.614.0
2018-Apr-17 02:58N 34°07' E 138°15'1018.9
2018-Apr-17 02:27N 34°12' E 138°25'1121.4
2018-Apr-17 01:57N 34°17' E 138°36'1121.9
2018-Apr-17 01:28N 34°22' E 138°48'1021.7
2018-Apr-17 01:00N 34°26' E 138°59'1121.4
2018-Apr-17 00:29N 34°31' E 139°11'1120.5
2018-Apr-16 23:57N 34°35' E 139°23'1619.7
2018-Apr-16 23:09N 34°48' E 139°34'421.8
2018-Apr-16 22:59N 34°52' E 139°36'1021.8
2018-Apr-16 22:30N 35°01' E 139°41'918.6
2018-Apr-16 22:00N 35°10' E 139°45'  

Dump ship's entire track history